createdAt,value
2019-03-31T00:01:10.949Z,10.50
2019-03-31T00:04:19.289Z,10.50
2019-03-31T00:07:27.590Z,10.40
2019-03-31T00:10:36.447Z,10.40
2019-03-31T00:13:44.842Z,10.30
2019-03-31T00:16:53.248Z,10.30
2019-03-31T00:20:03.208Z,10.20
2019-03-31T00:23:11.579Z,10.20
2019-03-31T00:26:19.868Z,10.10
2019-03-31T00:29:28.267Z,10.10
2019-03-31T00:32:51.075Z,10.00
2019-03-31T00:35:46.622Z,9.90
2019-03-31T00:38:49.123Z,9.90
2019-03-31T00:41:50.694Z,9.80
2019-03-31T00:44:55.510Z,9.80
2019-03-31T00:47:56.790Z,9.70
2019-03-31T00:50:59.132Z,9.70
2019-03-31T00:56:43.925Z,9.60
2019-03-31T01:02:30.161Z,9.50
2019-03-31T01:05:32.053Z,9.50
2019-03-31T01:11:16.181Z,9.50
2019-03-31T01:14:17.363Z,9.50
2019-03-31T01:17:19.300Z,9.50
2019-03-31T01:20:20.175Z,9.50
2019-03-31T01:23:21.536Z,9.50
2019-03-31T01:26:22.663Z,9.50
2019-03-31T01:29:23.854Z,9.50
2019-03-31T01:32:25.278Z,9.50
2019-03-31T01:35:26.543Z,9.40
2019-03-31T01:38:27.983Z,9.40
2019-03-31T01:41:28.915Z,9.40
2019-03-31T01:44:29.904Z,9.40
2019-03-31T01:47:31.712Z,9.30
2019-03-31T01:53:16.100Z,9.30
2019-03-31T01:56:20.677Z,9.30
2019-03-31T01:59:21.978Z,9.30
2019-03-31T02:02:28.259Z,9.30
2019-03-31T02:05:29.188Z,9.20
2019-03-31T02:08:30.647Z,9.20
2019-03-31T02:11:19.539Z,9.20
2019-03-31T02:14:27.849Z,9.20
2019-03-31T02:17:36.172Z,9.20
2019-03-31T02:20:44.391Z,9.20
2019-03-31T02:23:52.646Z,9.10
2019-03-31T02:27:00.904Z,9.10
2019-03-31T02:30:09.217Z,9.10
2019-03-31T02:33:17.525Z,9.10
2019-03-31T02:36:19.111Z,9.00
2019-03-31T02:39:20.664Z,9.00
2019-03-31T02:42:21.862Z,9.00
2019-03-31T02:45:23.310Z,8.90
2019-03-31T02:48:25.146Z,8.90
2019-03-31T02:51:26.718Z,8.90
2019-03-31T02:54:28.287Z,8.90
2019-03-31T02:57:30.500Z,8.90
2019-03-31T03:00:31.417Z,8.90
2019-03-31T03:03:32.681Z,8.90
2019-03-31T03:06:33.565Z,8.80
2019-03-31T03:09:34.986Z,8.80
2019-03-31T03:12:36.446Z,8.80
2019-03-31T03:18:20.418Z,8.80
2019-03-31T03:21:24.714Z,8.70
2019-03-31T03:24:26.099Z,8.70
2019-03-31T03:27:27.767Z,8.60
2019-03-31T03:30:16.682Z,8.70
2019-03-31T03:33:25.027Z,8.60
2019-03-31T03:36:26.747Z,8.60
2019-03-31T03:39:31.274Z,8.60
2019-03-31T03:42:32.849Z,8.60
2019-03-31T03:45:34.653Z,8.50
2019-03-31T03:48:38.649Z,8.50
2019-03-31T03:51:39.712Z,8.40
2019-03-31T03:54:41.730Z,8.30
2019-03-31T03:57:46.313Z,8.30
2019-03-31T04:00:47.255Z,8.30
2019-03-31T04:03:48.531Z,8.30
2019-03-31T04:06:50.147Z,8.30
2019-03-31T04:09:51.644Z,8.30
2019-03-31T04:12:52.634Z,8.20
2019-03-31T04:15:53.601Z,8.20
2019-03-31T04:18:54.868Z,8.10
2019-03-31T04:21:56.145Z,8.00
2019-03-31T04:24:57.307Z,8.00
2019-03-31T04:27:58.191Z,7.90
2019-03-31T04:31:00.030Z,8.00
2019-03-31T04:34:01.760Z,7.90
2019-03-31T04:37:02.931Z,7.90
2019-03-31T04:40:04.520Z,7.90
2019-03-31T04:43:05.412Z,7.90
2019-03-31T04:46:07.121Z,8.00
2019-03-31T04:49:08.656Z,8.00
2019-03-31T04:52:09.659Z,8.00
2019-03-31T04:55:10.551Z,8.00
2019-03-31T04:58:11.919Z,8.00
2019-03-31T05:01:13.485Z,8.00
2019-03-31T05:04:14.554Z,8.00
2019-03-31T05:07:15.326Z,7.90
2019-03-31T05:10:16.299Z,7.90
2019-03-31T05:13:17.640Z,7.90
2019-03-31T05:16:19.163Z,7.90
2019-03-31T05:19:22.017Z,7.80
2019-03-31T05:25:06.366Z,7.80
2019-03-31T05:28:07.688Z,7.80
2019-03-31T05:31:09.302Z,7.70
2019-03-31T05:34:18.916Z,7.70
2019-03-31T05:37:12.999Z,7.70
2019-03-31T05:40:13.920Z,7.70
2019-03-31T05:43:15.271Z,7.70
2019-03-31T05:46:16.659Z,7.70
2019-03-31T05:49:18.104Z,7.80
2019-03-31T05:52:19.808Z,7.90
2019-03-31T05:55:21.377Z,7.90
2019-03-31T05:58:22.410Z,7.90
2019-03-31T06:01:24.212Z,8.00
2019-03-31T06:04:33.062Z,8.10
2019-03-31T06:07:28.496Z,8.20
2019-03-31T06:10:29.753Z,8.20
2019-03-31T06:13:31.137Z,8.30
2019-03-31T06:16:32.140Z,8.30
2019-03-31T06:19:33.851Z,8.50
2019-03-31T06:22:35.501Z,8.60
2019-03-31T06:25:37.007Z,8.60
2019-03-31T06:28:38.739Z,8.60
2019-03-31T06:31:42.852Z,8.70
2019-03-31T06:34:47.708Z,8.90
2019-03-31T06:37:46.896Z,9.00
2019-03-31T06:40:49.415Z,9.10
2019-03-31T06:43:50.845Z,9.30
2019-03-31T06:46:51.943Z,9.40
2019-03-31T06:49:53.520Z,9.50
2019-03-31T06:52:54.669Z,9.70
2019-03-31T06:55:55.536Z,9.80
2019-03-31T06:58:56.991Z,9.90
2019-03-31T07:01:45.833Z,10.00
2019-03-31T07:05:00.906Z,10.20
2019-03-31T07:08:04.185Z,10.30
2019-03-31T07:11:12.427Z,10.50
2019-03-31T07:14:20.763Z,10.60
2019-03-31T07:17:29.138Z,10.80
2019-03-31T07:20:37.465Z,10.90
2019-03-31T07:23:45.847Z,10.80
2019-03-31T07:26:54.163Z,10.90
2019-03-31T07:30:02.534Z,11.10
2019-03-31T07:33:10.870Z,11.30
2019-03-31T07:36:19.171Z,11.40
2019-03-31T07:39:21.106Z,11.70
2019-03-31T07:42:22.702Z,11.90
2019-03-31T07:45:24.316Z,12.00
2019-03-31T07:48:13.255Z,12.10
2019-03-31T07:51:21.572Z,12.30
2019-03-31T07:54:29.903Z,12.50
2019-03-31T07:57:38.251Z,12.70
2019-03-31T08:00:46.536Z,12.80
2019-03-31T08:03:54.897Z,13.00
2019-03-31T08:07:03.226Z,13.10
2019-03-31T08:10:11.627Z,13.20
2019-03-31T08:13:19.964Z,13.40
2019-03-31T08:16:28.287Z,13.60
2019-03-31T08:19:36.572Z,13.70
2019-03-31T08:22:44.912Z,13.80
2019-03-31T08:25:53.290Z,14.00
2019-03-31T08:29:01.550Z,14.10
2019-03-31T08:32:09.982Z,14.20
2019-03-31T08:35:18.441Z,14.30
2019-03-31T08:41:42.596Z,14.60
2019-03-31T08:44:44.010Z,14.80
2019-03-31T08:47:45.319Z,14.90
2019-03-31T08:50:46.240Z,15.00
2019-03-31T08:53:47.327Z,15.20
2019-03-31T08:59:31.990Z,15.50
2019-03-31T09:02:34.782Z,15.60
2019-03-31T09:05:36.326Z,15.60
2019-03-31T09:08:37.874Z,15.70
2019-03-31T09:11:38.938Z,15.80
2019-03-31T09:14:40.089Z,15.90
2019-03-31T09:17:41.250Z,16.00
2019-03-31T09:20:42.098Z,16.20
2019-03-31T09:23:43.525Z,16.30
2019-03-31T09:26:45.276Z,16.20
2019-03-31T09:29:46.499Z,16.10
2019-03-31T09:32:47.699Z,16.20
2019-03-31T09:35:49.430Z,16.40
2019-03-31T09:38:51.712Z,16.50
2019-03-31T09:41:53.384Z,16.60
2019-03-31T09:44:54.683Z,16.60
2019-03-31T09:50:38.739Z,16.40
2019-03-31T09:53:39.641Z,16.60
2019-03-31T09:56:40.819Z,16.80
2019-03-31T09:59:42.501Z,16.90
2019-03-31T10:02:44.326Z,16.90
2019-03-31T10:05:47.950Z,16.80
2019-03-31T10:08:35.933Z,16.90
2019-03-31T10:11:44.283Z,16.80
2019-03-31T10:14:54.371Z,16.90
2019-03-31T10:18:03.031Z,17.10
2019-03-31T10:21:11.386Z,17.20
2019-03-31T10:24:19.677Z,17.20
2019-03-31T10:27:27.964Z,17.20
2019-03-31T10:30:36.908Z,17.30
2019-03-31T10:33:45.307Z,17.30
2019-03-31T10:36:44.339Z,17.10
2019-03-31T10:39:23.519Z,17.40
2019-03-31T10:42:11.487Z,17.60
2019-03-31T10:44:59.312Z,17.70
2019-03-31T10:47:47.315Z,17.60
2019-03-31T10:50:34.966Z,17.40
2019-03-31T10:53:22.182Z,17.30
2019-03-31T10:56:09.915Z,17.30
2019-03-31T10:58:57.590Z,17.50
2019-03-31T11:01:45.578Z,17.50
2019-03-31T11:04:33.581Z,17.50
2019-03-31T11:07:21.327Z,17.60
2019-03-31T11:10:09.230Z,17.60
2019-03-31T11:12:57.629Z,17.60
2019-03-31T11:15:45.524Z,17.50
2019-03-31T11:18:33.427Z,17.60
2019-03-31T11:21:22.827Z,17.70
2019-03-31T11:24:10.314Z,17.80
2019-03-31T11:26:58.098Z,17.80
2019-03-31T11:29:46.297Z,17.90
2019-03-31T11:32:33.644Z,18.00
2019-03-31T11:35:21.157Z,18.00
2019-03-31T11:38:09.065Z,18.20
2019-03-31T11:40:56.775Z,18.30
2019-03-31T11:43:44.519Z,18.40
2019-03-31T11:46:31.769Z,18.50
2019-03-31T11:49:19.481Z,18.70
2019-03-31T11:52:06.671Z,19.00
2019-03-31T11:54:54.075Z,19.30
2019-03-31T11:57:42.032Z,19.60
2019-03-31T12:00:31.207Z,19.80
2019-03-31T12:03:18.957Z,19.80
2019-03-31T12:06:06.734Z,20.00
2019-03-31T12:08:54.175Z,20.20
2019-03-31T12:11:45.390Z,20.40
2019-03-31T12:14:31.205Z,20.50
2019-03-31T12:17:18.671Z,20.70
2019-03-31T12:20:10.540Z,20.90
2019-03-31T12:22:57.899Z,21.20
2019-03-31T12:25:45.417Z,21.40
2019-03-31T12:28:32.919Z,21.60
2019-03-31T12:31:20.220Z,21.80
2019-03-31T12:34:07.909Z,21.70
2019-03-31T12:36:55.250Z,21.30
2019-03-31T12:39:42.975Z,21.70
2019-03-31T12:42:30.386Z,21.70
2019-03-31T12:45:17.951Z,22.00
2019-03-31T12:48:05.056Z,21.90
2019-03-31T12:50:52.619Z,21.90
2019-03-31T12:53:40.562Z,22.50
2019-03-31T12:56:28.595Z,22.60
2019-03-31T12:59:16.839Z,23.00
2019-03-31T13:02:04.322Z,23.30
2019-03-31T13:04:52.104Z,23.60
2019-03-31T13:07:39.571Z,23.90
2019-03-31T13:10:27.192Z,23.80
2019-03-31T13:13:15.754Z,23.80
2019-03-31T13:16:02.918Z,24.20
2019-03-31T13:18:50.283Z,24.40
2019-03-31T13:21:38.479Z,23.80
2019-03-31T13:24:26.933Z,24.20
2019-03-31T13:27:14.589Z,24.40
2019-03-31T13:30:02.979Z,24.80
2019-03-31T13:32:50.586Z,24.60
2019-03-31T13:35:37.914Z,24.20
2019-03-31T13:38:26.272Z,24.70
2019-03-31T13:41:13.940Z,25.30
2019-03-31T13:44:02.763Z,25.20
2019-03-31T13:46:50.811Z,25.20
2019-03-31T13:49:38.731Z,25.30
2019-03-31T13:52:26.425Z,25.30
2019-03-31T13:55:15.630Z,25.50
2019-03-31T13:58:04.955Z,25.90
2019-03-31T14:00:53.113Z,26.00
2019-03-31T14:03:40.669Z,26.00
2019-03-31T14:06:31.630Z,25.40
2019-03-31T14:09:18.986Z,25.40
2019-03-31T14:12:07.008Z,25.90
2019-03-31T14:14:55.330Z,26.30
2019-03-31T14:17:43.789Z,26.10
2019-03-31T14:20:31.610Z,26.60
2019-03-31T14:23:19.772Z,26.90
2019-03-31T14:26:08.279Z,27.30
2019-03-31T14:28:57.126Z,27.70
2019-03-31T14:31:45.957Z,27.30
2019-03-31T14:34:34.518Z,27.60
2019-03-31T14:37:24.448Z,28.40
2019-03-31T14:40:12.608Z,29.80
2019-03-31T14:43:01.242Z,31.50
2019-03-31T14:45:49.677Z,33.70
2019-03-31T14:48:38.531Z,34.90
2019-03-31T14:51:27.527Z,35.20
2019-03-31T14:54:15.932Z,36.60
2019-03-31T14:57:04.494Z,36.60
2019-03-31T14:59:52.438Z,37.30
2019-03-31T15:02:40.963Z,36.80
2019-03-31T15:05:29.587Z,37.00
2019-03-31T15:08:18.029Z,37.30
2019-03-31T15:11:06.568Z,37.80
2019-03-31T15:13:54.820Z,38.00
2019-03-31T15:16:42.877Z,38.20
2019-03-31T15:19:31.411Z,38.60
2019-03-31T15:22:19.960Z,38.30
2019-03-31T15:25:08.594Z,38.00
2019-03-31T15:27:57.315Z,37.90
2019-03-31T15:30:45.918Z,38.20
2019-03-31T15:33:34.378Z,38.10
2019-03-31T15:36:22.887Z,37.20
2019-03-31T15:39:11.339Z,36.60
2019-03-31T15:41:59.966Z,35.80
2019-03-31T15:44:48.518Z,36.00
2019-03-31T15:47:37.229Z,36.50
2019-03-31T15:50:25.401Z,36.10
2019-03-31T15:53:14.134Z,35.50
2019-03-31T15:56:02.834Z,35.30
2019-03-31T15:58:51.226Z,34.90
2019-03-31T16:01:39.163Z,35.00
2019-03-31T16:04:27.682Z,35.00
2019-03-31T16:07:16.470Z,33.00
2019-03-31T16:10:05.687Z,32.20
2019-03-31T16:12:53.825Z,31.60
2019-03-31T16:15:42.342Z,31.30
2019-03-31T16:18:30.635Z,30.40
2019-03-31T16:21:19.323Z,29.70
2019-03-31T16:24:07.906Z,29.40
2019-03-31T16:26:55.840Z,29.00
2019-03-31T16:29:43.470Z,28.40
2019-03-31T16:32:32.139Z,27.90
2019-03-31T16:35:19.609Z,27.10
2019-03-31T16:38:27.047Z,26.70
2019-03-31T16:41:28.632Z,26.00
2019-03-31T16:44:30.375Z,25.30
2019-03-31T16:47:31.807Z,25.00
2019-03-31T16:50:33.272Z,24.50
2019-03-31T16:53:35.503Z,24.00
2019-03-31T16:56:37.666Z,23.20
2019-03-31T16:59:38.968Z,22.30
2019-03-31T17:02:40.020Z,21.30
2019-03-31T17:05:41.435Z,20.60
2019-03-31T17:08:42.471Z,20.00
2019-03-31T17:11:43.633Z,19.50
2019-03-31T17:14:44.661Z,19.00
2019-03-31T17:17:45.816Z,18.60
2019-03-31T17:20:47.583Z,18.30
2019-03-31T17:23:48.987Z,18.00
2019-03-31T17:26:49.859Z,17.80
2019-03-31T17:29:51.084Z,17.60
2019-03-31T17:32:52.617Z,17.40
2019-03-31T17:35:54.222Z,17.20
2019-03-31T17:38:55.653Z,17.10
2019-03-31T17:41:56.864Z,16.90
2019-03-31T17:44:57.692Z,16.80
2019-03-31T17:47:59.015Z,16.50
2019-03-31T17:51:00.046Z,16.40
2019-03-31T17:54:06.022Z,16.30
2019-03-31T17:57:06.342Z,16.10
2019-03-31T18:00:08.146Z,16.00
2019-03-31T18:03:09.193Z,15.90
2019-03-31T18:06:10.663Z,15.70
2019-03-31T18:09:12.268Z,15.70
2019-03-31T18:12:13.243Z,15.60
2019-03-31T18:15:14.717Z,15.50
2019-03-31T18:18:16.180Z,15.40
2019-03-31T18:21:17.497Z,15.30
2019-03-31T18:24:18.311Z,15.20
2019-03-31T18:27:19.676Z,15.10
2019-03-31T18:30:20.842Z,15.10
2019-03-31T18:33:22.409Z,15.00
2019-03-31T18:36:35.991Z,15.00
2019-03-31T18:39:26.657Z,14.90
2019-03-31T18:42:28.165Z,14.80
2019-03-31T18:45:29.916Z,14.80
2019-03-31T18:48:31.499Z,14.70
2019-03-31T18:51:33.242Z,14.60
2019-03-31T18:54:36.260Z,14.60
2019-03-31T18:57:39.352Z,14.50
2019-03-31T19:01:00.012Z,14.50
2019-03-31T19:04:02.575Z,14.40
2019-03-31T19:07:22.610Z,14.40
2019-03-31T19:17:18.723Z,15.00
2019-03-31T19:20:39.568Z,14.20
2019-03-31T19:27:00.382Z,14.10
2019-03-31T19:30:06.419Z,14.00
2019-03-31T19:33:26.828Z,14.00
2019-03-31T19:36:47.762Z,13.90
2019-03-31T19:40:08.499Z,13.90
2019-03-31T19:43:28.844Z,13.90
2019-03-31T19:50:04.204Z,13.70
2019-03-31T19:53:09.908Z,13.70
2019-03-31T19:56:30.631Z,13.70
2019-03-31T19:59:51.432Z,13.60
2019-03-31T20:03:12.076Z,13.00
2019-03-31T20:09:47.136Z,13.50
2019-03-31T20:13:07.628Z,13.40
2019-03-31T20:16:10.635Z,13.40
2019-03-31T20:19:13.863Z,13.40
2019-03-31T20:25:49.200Z,13.30
2019-03-31T20:35:52.415Z,13.10
2019-03-31T20:39:13.182Z,13.10
2019-03-31T20:45:28.711Z,13.10
2019-03-31T20:48:29.728Z,13.00
2019-03-31T20:51:30.799Z,13.00
2019-03-31T20:54:33.088Z,12.90
2019-03-31T20:57:34.962Z,12.80
2019-03-31T21:00:35.951Z,12.70
2019-03-31T21:03:36.923Z,12.60
2019-03-31T21:06:38.618Z,12.50
2019-03-31T21:09:45.153Z,12.40
2019-03-31T21:12:42.572Z,12.40
2019-03-31T21:15:43.565Z,12.30
2019-03-31T21:18:44.367Z,12.20
2019-03-31T21:21:45.677Z,12.10
2019-03-31T21:24:46.470Z,12.10
2019-03-31T21:27:47.378Z,12.00
2019-03-31T21:30:48.674Z,11.90
2019-03-31T21:33:49.964Z,11.80
2019-03-31T21:36:51.725Z,11.80
2019-03-31T21:39:53.454Z,11.70
2019-03-31T21:42:54.784Z,11.60
2019-03-31T21:45:56.359Z,11.60
2019-03-31T21:48:57.293Z,11.50
2019-03-31T21:51:58.238Z,11.50
2019-03-31T21:54:59.843Z,11.40
2019-03-31T21:58:00.662Z,11.40
2019-03-31T22:01:02.018Z,11.30
2019-03-31T22:04:03.163Z,11.30
2019-03-31T22:07:04.286Z,11.20
2019-03-31T22:10:05.678Z,11.10
2019-03-31T22:13:06.615Z,11.10
2019-03-31T22:16:07.646Z,11.00
2019-03-31T22:19:09.075Z,11.10
2019-03-31T22:22:10.549Z,11.10
2019-03-31T22:25:11.594Z,11.10
2019-03-31T22:28:12.632Z,11.10
2019-03-31T22:31:14.051Z,11.10
2019-03-31T22:34:15.297Z,11.20
2019-03-31T22:37:10.016Z,11.20
2019-03-31T22:40:11.476Z,11.10
2019-03-31T22:43:12.998Z,11.10
2019-03-31T22:46:13.783Z,11.10
2019-03-31T22:49:16.368Z,11.10
2019-03-31T22:52:18.317Z,11.00
2019-03-31T22:55:19.629Z,11.00
2019-03-31T22:58:21.052Z,11.00
2019-03-31T23:01:22.326Z,10.90
2019-03-31T23:04:24.011Z,10.90
2019-03-31T23:07:25.222Z,10.80
2019-03-31T23:10:26.853Z,10.80
2019-03-31T23:13:28.472Z,10.80
2019-03-31T23:16:31.768Z,10.80
2019-03-31T23:19:37.539Z,10.70
2019-03-31T23:23:03.627Z,10.70
2019-03-31T23:34:53.387Z,10.70
2019-03-31T23:38:01.751Z,10.60
2019-03-31T23:40:50.668Z,10.60
2019-03-31T23:43:59.067Z,10.60
2019-03-31T23:47:07.494Z,10.60
2019-03-31T23:50:15.810Z,10.60
2019-03-31T23:53:24.259Z,10.60
2019-03-31T23:56:32.741Z,10.60
2019-03-31T23:59:41.188Z,10.60
